Date,TemperatureHighF,TemperatureAvgF,TemperatureLowF,DewpointHighF,DewpointAvgF,DewpointLowF,HumidityHigh,HumidityAvg,HumidityLow,PressureMaxIn,PressureMinIn,WindSpeedMaxMPH,WindSpeedAvgMPH,GustSpeedMaxMPH,PrecipitationSumIn
2013-8-1,84,76,71,76,67,61,89,74,54,28.97,28.91,4,0,5,0.24
2013-8-2,88,76,66,68,62,56,84,64,39,29.03,28.94,6,0,6,0.00
2013-8-3,87,77,69,69,64,60,81,67,50,29.03,28.97,5,0,9,0.00
2013-8-4,87,78,70,72,62,50,82,61,32,29.09,29.00,8,0,9,0.00
2013-8-5,90,75,64,64,58,52,76,57,31,29.09,28.97,4,0,8,0.00
2013-8-6,88,78,70,67,64,58,76,62,45,29.03,28.94,5,0,6,0.00
2013-8-7,85,77,72,78,70,66,87,79,71,29.06,28.94,5,0,8,0.56
2013-8-8,84,76,71,76,70,66,87,81,72,29.06,29.00,9,0,9,0.12
2013-8-9,90,78,70,79,70,66,89,77,56,29.09,29.00,6,0,6,0.00
2013-8-10,94,78,72,76,69,64,86,74,47,29.15,29.06,6,0,8,0.04
2013-8-11,90,77,71,78,70,64,88,78,55,29.21,29.09,5,0,9,0.04
2013-8-12,88,76,70,76,69,65,87,78,63,29.18,29.03,8,0,8,0.04
2013-8-13,87,77,72,75,69,65,88,76,53,29.06,28.94,6,0,10,0.08
2013-8-14,80,72,66,65,57,48,80,60,37,29.12,29.00,13,2,13,0.00
2013-8-15,84,71,62,61,55,49,65,57,41,29.15,29.06,8,0,8,0.00
2013-8-16,81,73,67,66,61,57,77,66,50,29.15,29.09,4,0,5,0.00
2013-8-17,76,71,67,65,60,57,81,71,54,29.21,29.12,5,0,7,0.36
2013-8-18,81,71,67,72,65,61,89,80,67,29.23,29.15,10,0,10,0.32
2013-8-19,79,72,68,71,66,63,91,82,69,29.21,29.12,5,0,5,0.12
2013-8-20,86,74,68,71,66,63,89,76,54,29.23,29.15,8,0,8,0.04
2013-8-21,82,74,70,72,67,64,88,79,70,29.26,29.18,5,0,6,0.00
2013-8-22,88,77,68,75,67,63,89,72,47,29.23,29.09,5,0,5,0.00
2013-8-23,88,75,69,73,66,60,84,74,47,29.15,29.06,9,0,14,0.04
2013-8-24,86,74,67,72,62,51,90,70,32,29.29,29.12,8,1,9,0.04
2013-8-25,86,73,64,66,58,51,81,62,36,29.44,29.26,7,0,8,0.00
2013-8-26,86,73,62,65,58,54,80,62,39,29.91,29.32,5,0,5,0.00
2013-8-27,87,75,65,69,61,57,80,65,42,30.80,29.23,6,0,6,0.00
2013-8-28,92,78,68,72,64,61,81,65,41,31.01,29.68,5,0,6,0.00
2013-8-29,90,79,73,73,67,63,79,68,51,31.01,30.71,8,0,8,0.00
2013-8-30,93,80,72,76,68,64,85,69,41,31.01,31.01,6,0,6,0.00
2013-8-31,91,80,73,80,70,63,88,72,51,31.01,31.01,5,0,7,0.24